Jill Carolyn — WDC2001 — position and weather

sailwx.info

Track history (hours):
 
Tides and Currents Weather Stations Pressure Air Temp Water Temp Dewpoint Dewpoint Depression Visibility Wind Speed Wind Dir Waves Ship Positions

Jill Carolyn

Owner: American River Transportation Company, St Louis, MO. More information available from US FCC via Universal Licensing System and Coast Guard Vessel Documentation Center.

Last reported at 2018-May-15 14:07 UTC. Time now 2018-May-21 19:00 UTC.
Position N 38°36' W 090°12'.

Length 20 m.

Type: Towing. MMSI: 366986320.

Date/timePositionNaut miles runAvg speedWind from/ knotsBaromVisibWave heightAir tempDewpointWater temp
2018-May-15 14:07N 38°36' W 090°12'0 1.2
2018-May-15 14:00N 38°36' W 090°12'0 0.0
2018-May-14 20:49N 38°35' W 090°12'3 8.9
2018-May-14 20:30N 38°38' W 090°11'3 6.0
2018-May-14 20:00N 38°41' W 090°12'0 0.0
2018-May-14 19:27N 38°41' W 090°12'2 5.2
2018-May-14 18:59N 38°39' W 090°11'4 3.3
2018-May-14 17:52N 38°35' W 090°13'411.9
2018-May-14 17:31N 38°39' W 090°11'0 0.6
2018-May-14 17:00N 38°40' W 090°11'1 2.3
2018-May-14 16:26N 38°38' W 090°11'1 2.1
2018-May-14 16:00N 38°37' W 090°11'1 2.1
2018-May-14 15:30N 38°36' W 090°11'1 0.0
2018-May-13 03:35N 38°36' W 090°12'110.0
2018-May-13 03:30N 38°36' W 090°11'0 0.1
2018-May-13 00:38N 38°36' W 090°12'0 0.0
2018-May-13 00:27N 38°36' W 090°12'  
2018-May-09 08:01N 38°36' W 090°12'0 2.4
2018-May-09 07:59N 38°36' W 090°12'0 0.6
2018-May-09 07:30N 38°36' W 090°12'0 0.1
2018-May-09 05:25N 38°36' W 090°12'0 0.0
2018-May-09 04:39N 38°36' W 090°12'0 1.4
2018-May-09 04:26N 38°36' W 090°12'0 0.6
2018-May-09 03:50N 38°36' W 090°12'0 0.8
2018-May-09 03:29N 38°36' W 090°12'0 0.6
2018-May-09 03:00N 38°36' W 090°12'1 0.0
2018-May-08 02:43N 38°35' W 090°13'1 0.2
2018-May-07 21:27N 38°36' W 090°12'0 0.1
2018-May-07 16:09N 38°36' W 090°11'313.2
2018-May-07 15:57N 38°39' W 090°11'1 2.1
2018-May-07 15:30N 38°40' W 090°11'2 4.1
2018-May-07 15:00N 38°38' W 090°11'3 0.2
2018-May-07 02:55N 38°35' W 090°13'0 0.1
2018-May-07 02:29N 38°35' W 090°13'  
Track history (hours):
 
Tides and Currents Weather Stations Pressure Air Temp Water Temp Dewpoint Dewpoint Depression Visibility Wind Speed Wind Dir Waves Ship Positions

Jill Carolyn

Owner: American River Transportation Company, St Louis, MO. More information available from US FCC via Universal Licensing System and Coast Guard Vessel Documentation Center.

Last reported at 2018-May-15 14:07 UTC. Time now 2018-May-21 19:00 UTC.
Position N 38°36' W 090°12'.

Length 20 m.

Type: Towing. MMSI: 366986320.

Date/timePositionNaut miles runAvg speedWind from/ knotsBaromVisibWave heightAir tempDewpointWater temp
2018-May-15 14:07N 38°36' W 090°12'0 1.2
2018-May-15 14:00N 38°36' W 090°12'0 0.0
2018-May-14 20:49N 38°35' W 090°12'3 8.9
2018-May-14 20:30N 38°38' W 090°11'3 6.0
2018-May-14 20:00N 38°41' W 090°12'0 0.0
2018-May-14 19:27N 38°41' W 090°12'2 5.2
2018-May-14 18:59N 38°39' W 090°11'4 3.3
2018-May-14 17:52N 38°35' W 090°13'411.9
2018-May-14 17:31N 38°39' W 090°11'0 0.6
2018-May-14 17:00N 38°40' W 090°11'1 2.3
2018-May-14 16:26N 38°38' W 090°11'1 2.1
2018-May-14 16:00N 38°37' W 090°11'1 2.1
2018-May-14 15:30N 38°36' W 090°11'1 0.0
2018-May-13 03:35N 38°36' W 090°12'110.0
2018-May-13 03:30N 38°36' W 090°11'0 0.1
2018-May-13 00:38N 38°36' W 090°12'0 0.0
2018-May-13 00:27N 38°36' W 090°12'  
2018-May-09 08:01N 38°36' W 090°12'0 2.4
2018-May-09 07:59N 38°36' W 090°12'0 0.6
2018-May-09 07:30N 38°36' W 090°12'0 0.1
2018-May-09 05:25N 38°36' W 090°12'0 0.0
2018-May-09 04:39N 38°36' W 090°12'0 1.4
2018-May-09 04:26N 38°36' W 090°12'0 0.6
2018-May-09 03:50N 38°36' W 090°12'0 0.8
2018-May-09 03:29N 38°36' W 090°12'0 0.6
2018-May-09 03:00N 38°36' W 090°12'1 0.0
2018-May-08 02:43N 38°35' W 090°13'1 0.2
2018-May-07 21:27N 38°36' W 090°12'0 0.1
2018-May-07 16:09N 38°36' W 090°11'313.2
2018-May-07 15:57N 38°39' W 090°11'1 2.1
2018-May-07 15:30N 38°40' W 090°11'2 4.1
2018-May-07 15:00N 38°38' W 090°11'3 0.2
2018-May-07 02:55N 38°35' W 090°13'0 0.1
2018-May-07 02:29N 38°35' W 090°13'  

Dump ship's entire track history